sensor_id;sensor_type;location;lat;lon;timestamp;P1;durP1;ratioP1;P2;durP2;ratioP2
72127;SDS011;60000;51.030;7.024;2023-03-26T00:01:23;18.20;;;2.65;;
72127;SDS011;60000;51.030;7.024;2023-03-26T00:03:49;13.95;;;2.20;;
72127;SDS011;60000;51.030;7.024;2023-03-26T00:06:23;15.13;;;2.25;;
72127;SDS011;60000;51.030;7.024;2023-03-26T00:08:51;13.40;;;2.05;;
72127;SDS011;60000;51.030;7.024;2023-03-26T00:11:17;18.77;;;2.97;;
72127;SDS011;60000;51.030;7.024;2023-03-26T00:13:44;16.52;;;3.20;;
72127;SDS011;60000;51.030;7.024;2023-03-26T00:16:11;19.33;;;2.70;;
72127;SDS011;60000;51.030;7.024;2023-03-26T00:18:37;14.70;;;2.40;;
72127;SDS011;60000;51.030;7.024;2023-03-26T00:21:04;22.23;;;3.08;;
72127;SDS011;60000;51.030;7.024;2023-03-26T00:23:32;18.87;;;3.40;;
72127;SDS011;60000;51.030;7.024;2023-03-26T00:25:59;20.55;;;3.10;;
72127;SDS011;60000;51.030;7.024;2023-03-26T00:28:25;21.90;;;3.15;;
72127;SDS011;60000;51.030;7.024;2023-03-26T00:30:58;19.17;;;2.30;;
72127;SDS011;60000;51.030;7.024;2023-03-26T00:33:25;21.87;;;2.97;;
72127;SDS011;60000;51.030;7.024;2023-03-26T00:35:51;16.10;;;2.88;;
72127;SDS011;60000;51.030;7.024;2023-03-26T00:38:19;18.27;;;2.70;;
72127;SDS011;60000;51.030;7.024;2023-03-26T00:40:46;17.55;;;3.22;;
72127;SDS011;60000;51.030;7.024;2023-03-26T00:43:14;20.27;;;2.53;;
72127;SDS011;60000;51.030;7.024;2023-03-26T00:45:50;18.25;;;2.60;;
72127;SDS011;60000;51.030;7.024;2023-03-26T00:48:18;23.33;;;3.33;;
72127;SDS011;60000;51.030;7.024;2023-03-26T00:50:44;17.40;;;2.83;;
72127;SDS011;60000;51.030;7.024;2023-03-26T00:53:11;16.00;;;2.45;;
72127;SDS011;60000;51.030;7.024;2023-03-26T00:55:38;16.57;;;2.63;;
72127;SDS011;60000;51.030;7.024;2023-03-26T00:58:06;15.93;;;2.92;;
72127;SDS011;60000;51.030;7.024;2023-03-26T01:00:36;18.50;;;2.78;;
72127;SDS011;60000;51.030;7.024;2023-03-26T01:03:11;18.27;;;2.63;;
72127;SDS011;60000;51.030;7.024;2023-03-26T01:05:46;16.23;;;3.00;;
72127;SDS011;60000;51.030;7.024;2023-03-26T01:08:21;15.90;;;2.53;;
72127;SDS011;60000;51.030;7.024;2023-03-26T01:10:58;19.55;;;3.05;;
72127;SDS011;60000;51.030;7.024;2023-03-26T01:13:36;12.57;;;2.13;;
72127;SDS011;60000;51.030;7.024;2023-03-26T01:16:04;15.82;;;2.40;;
72127;SDS011;60000;51.030;7.024;2023-03-26T01:18:43;17.17;;;1.70;;
72127;SDS011;60000;51.030;7.024;2023-03-26T01:21:09;13.67;;;2.47;;
72127;SDS011;60000;51.030;7.024;2023-03-26T01:23:41;23.58;;;3.40;;
72127;SDS011;60000;51.030;7.024;2023-03-26T01:26:24;15.52;;;2.50;;
72127;SDS011;60000;51.030;7.024;2023-03-26T01:28:54;18.13;;;2.50;;
72127;SDS011;60000;51.030;7.024;2023-03-26T01:31:32;16.10;;;3.27;;
72127;SDS011;60000;51.030;7.024;2023-03-26T01:39:16;10.95;;;2.40;;
72127;SDS011;60000;51.030;7.024;2023-03-26T01:41:53;12.23;;;1.65;;
72127;SDS011;60000;51.030;7.024;2023-03-26T01:44:25;8.63;;;1.77;;
72127;SDS011;60000;51.030;7.024;2023-03-26T01:46:54;9.60;;;1.45;;
72127;SDS011;60000;51.030;7.024;2023-03-26T01:49:20;12.75;;;1.77;;
72127;SDS011;60000;51.030;7.024;2023-03-26T01:51:46;15.13;;;2.27;;
72127;SDS011;60000;51.030;7.024;2023-03-26T01:54:14;6.50;;;1.50;;
72127;SDS011;60000;51.030;7.024;2023-03-26T02:02:25;8.35;;;1.60;;
72127;SDS011;60000;51.030;7.024;2023-03-26T02:07:43;9.32;;;1.63;;
72127;SDS011;60000;51.030;7.024;2023-03-26T02:13:03;12.80;;;2.20;;
72127;SDS011;60000;51.030;7.024;2023-03-26T02:15:30;11.73;;;1.85;;
72127;SDS011;60000;51.030;7.024;2023-03-26T02:17:57;10.73;;;1.80;;
72127;SDS011;60000;51.030;7.024;2023-03-26T02:20:23;12.27;;;1.90;;
72127;SDS011;60000;51.030;7.024;2023-03-26T02:22:54;10.27;;;1.75;;
72127;SDS011;60000;51.030;7.024;2023-03-26T02:25:20;9.75;;;1.75;;
72127;SDS011;60000;51.030;7.024;2023-03-26T02:27:46;8.90;;;1.40;;
72127;SDS011;60000;51.030;7.024;2023-03-26T02:30:14;8.90;;;1.70;;
72127;SDS011;60000;51.030;7.024;2023-03-26T02:32:41;8.32;;;1.40;;
72127;SDS011;60000;51.030;7.024;2023-03-26T02:35:08;9.63;;;1.97;;
72127;SDS011;60000;51.030;7.024;2023-03-26T02:37:34;7.20;;;1.40;;
72127;SDS011;60000;51.030;7.024;2023-03-26T02:39:59;9.63;;;1.73;;
72127;SDS011;60000;51.030;7.024;2023-03-26T02:42:25;9.03;;;2.00;;
72127;SDS011;60000;51.030;7.024;2023-03-26T02:44:51;8.23;;;1.58;;
72127;SDS011;60000;51.030;7.024;2023-03-26T02:47:16;10.43;;;1.93;;
72127;SDS011;60000;51.030;7.024;2023-03-26T02:49:41;10.87;;;1.63;;
72127;SDS011;60000;51.030;7.024;2023-03-26T02:52:07;8.47;;;1.40;;
72127;SDS011;60000;51.030;7.024;2023-03-26T02:54:32;10.10;;;2.03;;
72127;SDS011;60000;51.030;7.024;2023-03-26T02:56:59;8.32;;;1.92;;
72127;SDS011;60000;51.030;7.024;2023-03-26T02:59:24;8.80;;;1.85;;
72127;SDS011;60000;51.030;7.024;2023-03-26T03:01:50;14.27;;;2.17;;
72127;SDS011;60000;51.030;7.024;2023-03-26T03:04:15;10.23;;;1.60;;
72127;SDS011;60000;51.030;7.024;2023-03-26T03:06:42;8.48;;;1.77;;
72127;SDS011;60000;51.030;7.024;2023-03-26T03:09:11;8.80;;;1.90;;
72127;SDS011;60000;51.030;7.024;2023-03-26T03:11:39;8.50;;;1.50;;
72127;SDS011;60000;51.030;7.024;2023-03-26T03:14:05;6.10;;;1.40;;
72127;SDS011;60000;51.030;7.024;2023-03-26T03:16:30;7.07;;;1.50;;
72127;SDS011;60000;51.030;7.024;2023-03-26T03:18:56;8.73;;;1.60;;
72127;SDS011;60000;51.030;7.024;2023-03-26T03:21:22;5.82;;;1.30;;
72127;SDS011;60000;51.030;7.024;2023-03-26T03:23:49;8.87;;;1.40;;
72127;SDS011;60000;51.030;7.024;2023-03-26T03:26:16;6.50;;;1.55;;
72127;SDS011;60000;51.030;7.024;2023-03-26T03:28:45;12.20;;;2.33;;
72127;SDS011;60000;51.030;7.024;2023-03-26T03:31:11;7.10;;;1.23;;
72127;SDS011;60000;51.030;7.024;2023-03-26T03:33:37;9.77;;;1.43;;
72127;SDS011;60000;51.030;7.024;2023-03-26T03:36:02;8.60;;;1.80;;
72127;SDS011;60000;51.030;7.024;2023-03-26T03:38:34;11.50;;;2.35;;
72127;SDS011;60000;51.030;7.024;2023-03-26T03:41:00;9.53;;;2.07;;
72127;SDS011;60000;51.030;7.024;2023-03-26T03:43:25;6.87;;;1.63;;
72127;SDS011;60000;51.030;7.024;2023-03-26T03:45:51;9.43;;;2.00;;
72127;SDS011;60000;51.030;7.024;2023-03-26T03:48:16;11.40;;;2.50;;
72127;SDS011;60000;51.030;7.024;2023-03-26T03:50:43;9.35;;;1.90;;
72127;SDS011;60000;51.030;7.024;2023-03-26T03:53:08;12.40;;;2.00;;
72127;SDS011;60000;51.030;7.024;2023-03-26T03:55:33;14.73;;;2.27;;
72127;SDS011;60000;51.030;7.024;2023-03-26T03:58:02;9.88;;;2.00;;
72127;SDS011;60000;51.030;7.024;2023-03-26T04:00:27;11.32;;;2.53;;
72127;SDS011;60000;51.030;7.024;2023-03-26T04:02:54;15.33;;;2.00;;
72127;SDS011;60000;51.030;7.024;2023-03-26T04:05:20;14.63;;;2.20;;
72127;SDS011;60000;51.030;7.024;2023-03-26T04:07:45;13.43;;;2.57;;
72127;SDS011;60000;51.030;7.024;2023-03-26T04:10:11;10.25;;;1.63;;
72127;SDS011;60000;51.030;7.024;2023-03-26T04:12:39;11.20;;;1.70;;
72127;SDS011;60000;51.030;7.024;2023-03-26T04:15:04;10.52;;;2.00;;
72127;SDS011;60000;51.030;7.024;2023-03-26T04:17:30;8.90;;;2.03;;
72127;SDS011;60000;51.030;7.024;2023-03-26T04:19:55;9.10;;;1.23;;
72127;SDS011;60000;51.030;7.024;2023-03-26T04:22:21;11.57;;;1.55;;
72127;SDS011;60000;51.030;7.024;2023-03-26T04:24:47;12.23;;;1.93;;
72127;SDS011;60000;51.030;7.024;2023-03-26T04:27:15;10.10;;;1.52;;
72127;SDS011;60000;51.030;7.024;2023-03-26T04:29:43;12.88;;;1.80;;
72127;SDS011;60000;51.030;7.024;2023-03-26T04:32:15;9.93;;;1.83;;
72127;SDS011;60000;51.030;7.024;2023-03-26T04:34:58;11.85;;;1.70;;
72127;SDS011;60000;51.030;7.024;2023-03-26T04:37:32;7.57;;;1.70;;
72127;SDS011;60000;51.030;7.024;2023-03-26T04:40:04;7.70;;;1.60;;
72127;SDS011;60000;51.030;7.024;2023-03-26T04:42:33;6.70;;;1.20;;
72127;SDS011;60000;51.030;7.024;2023-03-26T04:45:02;7.75;;;1.48;;
72127;SDS011;60000;51.030;7.024;2023-03-26T04:47:31;8.25;;;1.55;;
72127;SDS011;60000;51.030;7.024;2023-03-26T04:49:56;6.17;;;1.23;;
72127;SDS011;60000;51.030;7.024;2023-03-26T04:52:21;9.13;;;1.83;;
72127;SDS011;60000;51.030;7.024;2023-03-26T04:54:47;8.95;;;1.58;;
72127;SDS011;60000;51.030;7.024;2023-03-26T04:57:20;11.80;;;2.00;;
72127;SDS011;60000;51.030;7.024;2023-03-26T04:59:50;10.48;;;1.88;;
72127;SDS011;60000;51.030;7.024;2023-03-26T05:02:15;13.10;;;2.90;;
72127;SDS011;60000;51.030;7.024;2023-03-26T05:04:41;7.88;;;1.42;;
72127;SDS011;60000;51.030;7.024;2023-03-26T05:07:09;10.43;;;2.07;;
72127;SDS011;60000;51.030;7.024;2023-03-26T05:09:36;9.43;;;1.70;;
72127;SDS011;60000;51.030;7.024;2023-03-26T05:12:02;10.93;;;1.93;;
72127;SDS011;60000;51.030;7.024;2023-03-26T05:14:27;12.27;;;1.98;;
72127;SDS011;60000;51.030;7.024;2023-03-26T05:16:52;12.80;;;1.70;;
72127;SDS011;60000;51.030;7.024;2023-03-26T05:19:18;10.17;;;1.70;;
72127;SDS011;60000;51.030;7.024;2023-03-26T05:21:44;11.30;;;1.80;;
72127;SDS011;60000;51.030;7.024;2023-03-26T05:24:10;8.02;;;1.48;;
72127;SDS011;60000;51.030;7.024;2023-03-26T05:26:35;14.60;;;1.93;;
72127;SDS011;60000;51.030;7.024;2023-03-26T05:29:01;10.70;;;2.15;;
72127;SDS011;60000;51.030;7.024;2023-03-26T05:31:27;7.20;;;1.48;;
72127;SDS011;60000;51.030;7.024;2023-03-26T05:33:54;8.98;;;2.08;;
72127;SDS011;60000;51.030;7.024;2023-03-26T05:36:20;9.82;;;1.40;;
72127;SDS011;60000;51.030;7.024;2023-03-26T05:38:47;13.88;;;1.90;;
72127;SDS011;60000;51.030;7.024;2023-03-26T05:41:13;12.07;;;1.80;;
72127;SDS011;60000;51.030;7.024;2023-03-26T05:43:39;6.90;;;1.40;;
72127;SDS011;60000;51.030;7.024;2023-03-26T05:46:04;13.73;;;1.95;;
72127;SDS011;60000;51.030;7.024;2023-03-26T05:48:30;9.73;;;1.90;;
72127;SDS011;60000;51.030;7.024;2023-03-26T05:50:56;12.57;;;1.90;;
72127;SDS011;60000;51.030;7.024;2023-03-26T05:53:23;14.30;;;2.53;;
72127;SDS011;60000;51.030;7.024;2023-03-26T05:55:50;11.30;;;1.80;;
72127;SDS011;60000;51.030;7.024;2023-03-26T05:58:26;9.13;;;1.85;;
72127;SDS011;60000;51.030;7.024;2023-03-26T06:01:06;8.57;;;1.85;;
72127;SDS011;60000;51.030;7.024;2023-03-26T06:03:37;8.53;;;1.63;;
72127;SDS011;60000;51.030;7.024;2023-03-26T06:06:07;8.82;;;1.65;;
72127;SDS011;60000;51.030;7.024;2023-03-26T06:08:33;11.02;;;2.20;;
72127;SDS011;60000;51.030;7.024;2023-03-26T06:11:00;10.70;;;1.50;;
72127;SDS011;60000;51.030;7.024;2023-03-26T06:13:27;9.27;;;1.88;;
72127;SDS011;60000;51.030;7.024;2023-03-26T06:15:53;10.85;;;2.20;;
72127;SDS011;60000;51.030;7.024;2023-03-26T06:18:18;12.20;;;2.13;;
72127;SDS011;60000;51.030;7.024;2023-03-26T06:20:44;11.73;;;1.85;;
72127;SDS011;60000;51.030;7.024;2023-03-26T06:23:10;7.80;;;1.80;;
72127;SDS011;60000;51.030;7.024;2023-03-26T06:25:36;11.40;;;1.80;;
72127;SDS011;60000;51.030;7.024;2023-03-26T06:28:02;9.77;;;1.50;;
72127;SDS011;60000;51.030;7.024;2023-03-26T06:30:27;9.80;;;1.63;;
72127;SDS011;60000;51.030;7.024;2023-03-26T06:32:52;10.60;;;2.03;;
72127;SDS011;60000;51.030;7.024;2023-03-26T06:35:18;7.07;;;2.00;;
72127;SDS011;60000;51.030;7.024;2023-03-26T06:37:43;11.07;;;1.63;;
72127;SDS011;60000;51.030;7.024;2023-03-26T06:40:09;7.93;;;1.83;;
72127;SDS011;60000;51.030;7.024;2023-03-26T06:42:34;9.77;;;1.90;;
72127;SDS011;60000;51.030;7.024;2023-03-26T06:45:00;7.27;;;1.70;;
72127;SDS011;60000;51.030;7.024;2023-03-26T06:47:25;8.30;;;1.80;;
72127;SDS011;60000;51.030;7.024;2023-03-26T06:49:50;9.70;;;1.77;;
72127;SDS011;60000;51.030;7.024;2023-03-26T06:52:16;9.30;;;1.90;;
72127;SDS011;60000;51.030;7.024;2023-03-26T06:54:41;7.57;;;1.53;;
72127;SDS011;60000;51.030;7.024;2023-03-26T06:57:06;6.80;;;1.30;;
72127;SDS011;60000;51.030;7.024;2023-03-26T06:59:31;7.43;;;1.63;;
72127;SDS011;60000;51.030;7.024;2023-03-26T07:01:57;5.83;;;1.33;;
72127;SDS011;60000;51.030;7.024;2023-03-26T07:04:22;7.10;;;1.47;;
72127;SDS011;60000;51.030;7.024;2023-03-26T07:06:47;10.00;;;1.60;;
72127;SDS011;60000;51.030;7.024;2023-03-26T07:09:13;6.03;;;1.55;;
72127;SDS011;60000;51.030;7.024;2023-03-26T07:11:38;7.87;;;2.10;;
72127;SDS011;60000;51.030;7.024;2023-03-26T07:14:04;8.97;;;2.13;;
72127;SDS011;60000;51.030;7.024;2023-03-26T07:16:29;8.87;;;1.87;;
72127;SDS011;60000;51.030;7.024;2023-03-26T07:18:55;9.13;;;2.07;;
72127;SDS011;60000;51.030;7.024;2023-03-26T07:21:20;9.23;;;1.80;;
72127;SDS011;60000;51.030;7.024;2023-03-26T07:23:46;6.35;;;1.67;;
72127;SDS011;60000;51.030;7.024;2023-03-26T07:26:17;7.90;;;1.85;;
72127;SDS011;60000;51.030;7.024;2023-03-26T07:28:48;10.70;;;2.10;;
72127;SDS011;60000;51.030;7.024;2023-03-26T07:31:28;9.57;;;1.67;;
72127;SDS011;60000;51.030;7.024;2023-03-26T07:34:09;10.25;;;2.25;;
72127;SDS011;60000;51.030;7.024;2023-03-26T07:46:41;8.52;;;1.80;;
72127;SDS011;60000;51.030;7.024;2023-03-26T07:49:08;7.40;;;2.10;;
72127;SDS011;60000;51.030;7.024;2023-03-26T07:51:36;8.73;;;1.83;;
72127;SDS011;60000;51.030;7.024;2023-03-26T07:54:02;8.13;;;1.95;;
72127;SDS011;60000;51.030;7.024;2023-03-26T07:56:31;8.47;;;2.03;;
72127;SDS011;60000;51.030;7.024;2023-03-26T08:07:07;9.43;;;1.83;;
72127;SDS011;60000;51.030;7.024;2023-03-26T08:09:52;10.05;;;2.10;;
72127;SDS011;60000;51.030;7.024;2023-03-26T08:17:46;11.98;;;1.80;;
72127;SDS011;60000;51.030;7.024;2023-03-26T08:26:04;13.00;;;1.97;;
72127;SDS011;60000;51.030;7.024;2023-03-26T08:31:30;11.13;;;2.28;;
72127;SDS011;60000;51.030;7.024;2023-03-26T08:33:59;8.80;;;1.60;;
72127;SDS011;60000;51.030;7.024;2023-03-26T08:36:27;8.70;;;2.30;;
72127;SDS011;60000;51.030;7.024;2023-03-26T08:38:53;9.50;;;2.03;;
72127;SDS011;60000;51.030;7.024;2023-03-26T08:41:34;8.77;;;2.10;;
72127;SDS011;60000;51.030;7.024;2023-03-26T08:58:49;8.85;;;1.70;;
72127;SDS011;60000;51.030;7.024;2023-03-26T09:07:28;8.35;;;1.50;;
72127;SDS011;60000;51.030;7.024;2023-03-26T09:21:29;8.18;;;1.40;;
72127;SDS011;60000;51.030;7.024;2023-03-26T09:30:14;7.00;;;1.73;;
72127;SDS011;60000;51.030;7.024;2023-03-26T09:41:01;5.40;;;1.35;;
72127;SDS011;60000;51.030;7.024;2023-03-26T10:12:35;5.88;;;1.50;;
72127;SDS011;60000;51.030;7.024;2023-03-26T10:15:17;7.18;;;2.28;;
72127;SDS011;60000;51.030;7.024;2023-03-26T10:21:03;31.92;;;17.63;;
72127;SDS011;60000;51.030;7.024;2023-03-26T10:32:09;7.50;;;2.25;;
72127;SDS011;60000;51.030;7.024;2023-03-26T10:34:48;24.17;;;12.98;;
72127;SDS011;60000;51.030;7.024;2023-03-26T10:57:05;24.98;;;9.70;;
72127;SDS011;60000;51.030;7.024;2023-03-26T10:59:36;18.40;;;8.60;;
72127;SDS011;60000;51.030;7.024;2023-03-26T11:02:20;13.77;;;7.80;;
72127;SDS011;60000;51.030;7.024;2023-03-26T11:08:03;6.97;;;2.92;;
72127;SDS011;60000;51.030;7.024;2023-03-26T11:16:56;4.22;;;1.50;;
72127;SDS011;60000;51.030;7.024;2023-03-26T11:19:44;4.07;;;1.58;;
72127;SDS011;60000;51.030;7.024;2023-03-26T11:31:07;18.50;;;8.63;;
72127;SDS011;60000;51.030;7.024;2023-03-26T11:33:42;52.45;;;22.98;;
72127;SDS011;60000;51.030;7.024;2023-03-26T11:36:12;18.00;;;8.30;;
72127;SDS011;60000;51.030;7.024;2023-03-26T11:38:45;9.23;;;3.30;;
72127;SDS011;60000;51.030;7.024;2023-03-26T11:41:23;8.88;;;2.75;;
72127;SDS011;60000;51.030;7.024;2023-03-26T11:43:55;7.03;;;2.50;;
72127;SDS011;60000;51.030;7.024;2023-03-26T11:46:24;7.38;;;2.10;;
72127;SDS011;60000;51.030;7.024;2023-03-26T11:51:29;8.53;;;3.67;;
72127;SDS011;60000;51.030;7.024;2023-03-26T11:54:01;8.95;;;2.83;;
72127;SDS011;60000;51.030;7.024;2023-03-26T11:59:04;10.32;;;3.90;;
72127;SDS011;60000;51.030;7.024;2023-03-26T12:01:47;8.02;;;3.53;;
72127;SDS011;60000;51.030;7.024;2023-03-26T12:04:42;8.13;;;4.07;;
72127;SDS011;60000;51.030;7.024;2023-03-26T12:07:20;8.27;;;3.50;;
72127;SDS011;60000;51.030;7.024;2023-03-26T12:10:04;9.50;;;3.83;;
72127;SDS011;60000;51.030;7.024;2023-03-26T12:12:32;5.88;;;1.83;;
72127;SDS011;60000;51.030;7.024;2023-03-26T12:15:12;4.72;;;1.92;;
72127;SDS011;60000;51.030;7.024;2023-03-26T12:17:39;4.00;;;1.50;;
72127;SDS011;60000;51.030;7.024;2023-03-26T12:22:53;4.10;;;1.20;;
72127;SDS011;60000;51.030;7.024;2023-03-26T12:25:26;8.02;;;3.38;;
72127;SDS011;60000;51.030;7.024;2023-03-26T12:32:58;6.57;;;2.25;;
72127;SDS011;60000;51.030;7.024;2023-03-26T12:35:28;7.60;;;2.10;;
72127;SDS011;60000;51.030;7.024;2023-03-26T12:38:12;5.50;;;1.80;;
72127;SDS011;60000;51.030;7.024;2023-03-26T12:40:40;4.80;;;1.70;;
72127;SDS011;60000;51.030;7.024;2023-03-26T12:46:08;4.82;;;1.65;;
72127;SDS011;60000;51.030;7.024;2023-03-26T12:48:49;5.65;;;1.75;;
72127;SDS011;60000;51.030;7.024;2023-03-26T13:02:13;5.85;;;2.67;;
72127;SDS011;60000;51.030;7.024;2023-03-26T13:05:00;4.18;;;1.58;;
72127;SDS011;60000;51.030;7.024;2023-03-26T13:07:50;4.40;;;1.30;;
72127;SDS011;60000;51.030;7.024;2023-03-26T13:13:18;9.90;;;7.18;;
72127;SDS011;60000;51.030;7.024;2023-03-26T13:16:03;5.05;;;1.80;;
72127;SDS011;60000;51.030;7.024;2023-03-26T13:18:43;3.78;;;1.60;;
72127;SDS011;60000;51.030;7.024;2023-03-26T13:26:49;4.25;;;1.20;;
72127;SDS011;60000;51.030;7.024;2023-03-26T13:29:31;4.28;;;1.20;;
72127;SDS011;60000;51.030;7.024;2023-03-26T13:45:47;3.95;;;1.30;;
72127;SDS011;60000;51.030;7.024;2023-03-26T13:48:20;4.70;;;1.48;;
72127;SDS011;60000;51.030;7.024;2023-03-26T13:50:56;5.28;;;1.20;;
72127;SDS011;60000;51.030;7.024;2023-03-26T13:53:39;3.25;;;1.13;;
72127;SDS011;60000;51.030;7.024;2023-03-26T13:56:09;3.83;;;1.30;;
72127;SDS011;60000;51.030;7.024;2023-03-26T13:58:52;4.88;;;1.48;;
72127;SDS011;60000;51.030;7.024;2023-03-26T14:01:28;4.57;;;1.20;;
72127;SDS011;60000;51.030;7.024;2023-03-26T14:06:43;2.95;;;1.00;;
72127;SDS011;60000;51.030;7.024;2023-03-26T14:09:20;3.75;;;1.00;;
72127;SDS011;60000;51.030;7.024;2023-03-26T14:37:41;3.92;;;0.90;;
72127;SDS011;60000;51.030;7.024;2023-03-26T14:54:07;3.60;;;0.90;;
72127;SDS011;60000;51.030;7.024;2023-03-26T15:21:16;2.97;;;1.15;;
72127;SDS011;60000;51.030;7.024;2023-03-26T15:24:21;3.60;;;1.05;;
72127;SDS011;60000;51.030;7.024;2023-03-26T15:30:11;3.08;;;1.20;;
72127;SDS011;60000;51.030;7.024;2023-03-26T15:33:17;7.07;;;1.05;;
72127;SDS011;60000;51.030;7.024;2023-03-26T15:53:00;2.47;;;0.90;;
72127;SDS011;60000;51.030;7.024;2023-03-26T15:55:44;3.10;;;1.05;;
72127;SDS011;60000;51.030;7.024;2023-03-26T15:58:24;2.13;;;0.73;;
72127;SDS011;60000;51.030;7.024;2023-03-26T16:03:35;2.55;;;1.10;;
72127;SDS011;60000;51.030;7.024;2023-03-26T16:11:44;4.57;;;1.42;;
72127;SDS011;60000;51.030;7.024;2023-03-26T16:16:59;6.28;;;2.03;;
72127;SDS011;60000;51.030;7.024;2023-03-26T16:22:38;3.33;;;1.27;;
72127;SDS011;60000;51.030;7.024;2023-03-26T16:25:11;4.03;;;1.40;;
72127;SDS011;60000;51.030;7.024;2023-03-26T16:27:48;2.53;;;1.00;;
72127;SDS011;60000;51.030;7.024;2023-03-26T16:30:41;2.10;;;0.95;;
72127;SDS011;60000;51.030;7.024;2023-03-26T16:33:33;2.37;;;1.00;;
72127;SDS011;60000;51.030;7.024;2023-03-26T16:38:47;2.75;;;0.93;;
72127;SDS011;60000;51.030;7.024;2023-03-26T16:41:32;3.38;;;1.15;;
72127;SDS011;60000;51.030;7.024;2023-03-26T16:47:40;3.43;;;1.00;;
72127;SDS011;60000;51.030;7.024;2023-03-26T16:50:19;2.05;;;0.82;;
72127;SDS011;60000;51.030;7.024;2023-03-26T16:52:59;2.85;;;0.95;;
72127;SDS011;60000;51.030;7.024;2023-03-26T16:55:58;3.65;;;1.30;;
72127;SDS011;60000;51.030;7.024;2023-03-26T16:58:42;2.35;;;0.77;;
72127;SDS011;60000;51.030;7.024;2023-03-26T17:01:20;4.40;;;1.20;;
72127;SDS011;60000;51.030;7.024;2023-03-26T17:09:31;3.58;;;1.02;;
72127;SDS011;60000;51.030;7.024;2023-03-26T17:12:00;2.75;;;1.05;;
72127;SDS011;60000;51.030;7.024;2023-03-26T17:22:56;3.08;;;0.90;;
72127;SDS011;60000;51.030;7.024;2023-03-26T17:25:34;3.38;;;0.88;;
72127;SDS011;60000;51.030;7.024;2023-03-26T17:31:04;4.30;;;1.30;;
72127;SDS011;60000;51.030;7.024;2023-03-26T17:33:39;4.03;;;1.33;;
72127;SDS011;60000;51.030;7.024;2023-03-26T17:41:12;4.67;;;1.40;;
72127;SDS011;60000;51.030;7.024;2023-03-26T17:43:58;3.78;;;1.30;;
72127;SDS011;60000;51.030;7.024;2023-03-26T17:46:33;5.95;;;1.70;;
72127;SDS011;60000;51.030;7.024;2023-03-26T17:54:30;4.95;;;1.65;;
72127;SDS011;60000;51.030;7.024;2023-03-26T17:57:09;5.35;;;1.85;;
72127;SDS011;60000;51.030;7.024;2023-03-26T17:59:39;5.37;;;1.87;;
72127;SDS011;60000;51.030;7.024;2023-03-26T18:02:11;4.97;;;1.95;;
72127;SDS011;60000;51.030;7.024;2023-03-26T18:04:40;8.00;;;3.08;;
72127;SDS011;60000;51.030;7.024;2023-03-26T18:15:55;14.27;;;3.30;;
72127;SDS011;60000;51.030;7.024;2023-03-26T18:18:52;12.90;;;3.63;;
72127;SDS011;60000;51.030;7.024;2023-03-26T18:23:58;14.65;;;3.33;;
72127;SDS011;60000;51.030;7.024;2023-03-26T18:26:32;11.17;;;2.90;;
72127;SDS011;60000;51.030;7.024;2023-03-26T18:29:10;8.57;;;2.90;;
72127;SDS011;60000;51.030;7.024;2023-03-26T18:31:36;10.13;;;2.63;;
72127;SDS011;60000;51.030;7.024;2023-03-26T18:34:10;11.23;;;2.20;;
72127;SDS011;60000;51.030;7.024;2023-03-26T18:36:39;11.75;;;2.58;;
72127;SDS011;60000;51.030;7.024;2023-03-26T18:39:05;11.77;;;2.50;;
72127;SDS011;60000;51.030;7.024;2023-03-26T18:41:36;10.07;;;2.33;;
72127;SDS011;60000;51.030;7.024;2023-03-26T18:44:06;8.93;;;2.15;;
72127;SDS011;60000;51.030;7.024;2023-03-26T18:46:37;10.60;;;2.50;;
72127;SDS011;60000;51.030;7.024;2023-03-26T18:49:03;10.80;;;2.73;;
72127;SDS011;60000;51.030;7.024;2023-03-26T18:51:30;11.60;;;2.10;;
72127;SDS011;60000;51.030;7.024;2023-03-26T18:53:56;13.10;;;2.43;;
72127;SDS011;60000;51.030;7.024;2023-03-26T18:58:52;11.30;;;2.30;;
72127;SDS011;60000;51.030;7.024;2023-03-26T19:01:21;9.52;;;2.85;;
72127;SDS011;60000;51.030;7.024;2023-03-26T19:03:54;11.07;;;2.47;;
72127;SDS011;60000;51.030;7.024;2023-03-26T19:06:21;13.63;;;2.63;;
72127;SDS011;60000;51.030;7.024;2023-03-26T19:08:47;11.20;;;2.60;;
72127;SDS011;60000;51.030;7.024;2023-03-26T19:11:14;14.13;;;2.72;;
72127;SDS011;60000;51.030;7.024;2023-03-26T19:13:41;12.83;;;2.83;;
72127;SDS011;60000;51.030;7.024;2023-03-26T19:16:40;9.25;;;2.90;;
72127;SDS011;60000;51.030;7.024;2023-03-26T19:19:04;11.30;;;2.80;;
72127;SDS011;60000;51.030;7.024;2023-03-26T19:21:32;11.38;;;2.38;;
72127;SDS011;60000;51.030;7.024;2023-03-26T19:23:59;11.35;;;2.80;;
72127;SDS011;60000;51.030;7.024;2023-03-26T19:26:26;13.82;;;2.78;;
72127;SDS011;60000;51.030;7.024;2023-03-26T19:28:52;12.82;;;2.50;;
72127;SDS011;60000;51.030;7.024;2023-03-26T19:36:49;12.50;;;2.00;;
72127;SDS011;60000;51.030;7.024;2023-03-26T19:39:37;7.88;;;1.80;;
72127;SDS011;60000;51.030;7.024;2023-03-26T19:42:04;7.83;;;1.70;;
72127;SDS011;60000;51.030;7.024;2023-03-26T19:44:31;9.27;;;2.13;;
72127;SDS011;60000;51.030;7.024;2023-03-26T19:47:01;7.10;;;1.75;;
72127;SDS011;60000;51.030;7.024;2023-03-26T19:49:39;16.85;;;2.65;;
72127;SDS011;60000;51.030;7.024;2023-03-26T19:54:48;8.20;;;1.80;;
72127;SDS011;60000;51.030;7.024;2023-03-26T19:57:15;11.88;;;1.98;;
72127;SDS011;60000;51.030;7.024;2023-03-26T19:59:40;11.10;;;2.38;;
72127;SDS011;60000;51.030;7.024;2023-03-26T20:02:11;15.93;;;2.72;;
72127;SDS011;60000;51.030;7.024;2023-03-26T20:04:38;11.37;;;2.03;;
72127;SDS011;60000;51.030;7.024;2023-03-26T20:07:07;14.18;;;2.15;;
72127;SDS011;60000;51.030;7.024;2023-03-26T20:09:39;10.80;;;2.20;;
72127;SDS011;60000;51.030;7.024;2023-03-26T20:12:05;16.02;;;2.30;;
72127;SDS011;60000;51.030;7.024;2023-03-26T20:14:31;10.43;;;2.40;;
72127;SDS011;60000;51.030;7.024;2023-03-26T20:16:56;7.83;;;1.97;;
72127;SDS011;60000;51.030;7.024;2023-03-26T20:19:22;12.15;;;2.20;;
72127;SDS011;60000;51.030;7.024;2023-03-26T20:21:47;11.33;;;2.33;;
72127;SDS011;60000;51.030;7.024;2023-03-26T20:24:16;10.53;;;2.23;;
72127;SDS011;60000;51.030;7.024;2023-03-26T20:26:42;10.60;;;2.22;;
72127;SDS011;60000;51.030;7.024;2023-03-26T20:29:08;10.70;;;2.20;;
72127;SDS011;60000;51.030;7.024;2023-03-26T20:31:34;12.57;;;2.90;;
72127;SDS011;60000;51.030;7.024;2023-03-26T20:33:59;13.77;;;2.58;;
72127;SDS011;60000;51.030;7.024;2023-03-26T20:36:25;7.47;;;1.80;;
72127;SDS011;60000;51.030;7.024;2023-03-26T20:38:53;8.47;;;2.27;;
72127;SDS011;60000;51.030;7.024;2023-03-26T20:41:19;16.23;;;2.70;;
72127;SDS011;60000;51.030;7.024;2023-03-26T20:43:47;10.13;;;1.70;;
72127;SDS011;60000;51.030;7.024;2023-03-26T20:46:22;8.18;;;1.85;;
72127;SDS011;60000;51.030;7.024;2023-03-26T20:48:50;12.27;;;1.90;;
72127;SDS011;60000;51.030;7.024;2023-03-26T20:51:16;10.38;;;1.60;;
72127;SDS011;60000;51.030;7.024;2023-03-26T20:53:44;10.00;;;1.77;;
72127;SDS011;60000;51.030;7.024;2023-03-26T20:56:11;9.07;;;1.55;;
72127;SDS011;60000;51.030;7.024;2023-03-26T20:58:39;11.48;;;1.73;;
72127;SDS011;60000;51.030;7.024;2023-03-26T21:01:05;13.75;;;1.60;;
72127;SDS011;60000;51.030;7.024;2023-03-26T21:03:34;9.05;;;1.50;;
72127;SDS011;60000;51.030;7.024;2023-03-26T21:06:01;9.13;;;1.80;;
72127;SDS011;60000;51.030;7.024;2023-03-26T21:08:28;9.30;;;2.00;;
72127;SDS011;60000;51.030;7.024;2023-03-26T21:11:00;8.53;;;1.67;;
72127;SDS011;60000;51.030;7.024;2023-03-26T21:13:36;7.25;;;1.50;;
72127;SDS011;60000;51.030;7.024;2023-03-26T21:16:04;12.35;;;1.63;;
72127;SDS011;60000;51.030;7.024;2023-03-26T21:18:30;14.18;;;1.98;;
72127;SDS011;60000;51.030;7.024;2023-03-26T21:21:21;7.67;;;2.00;;